createdAt,value
2022-09-18T00:01:32.327Z,13.20
2022-09-18T00:04:02.033Z,13.10
2022-09-18T00:06:32.530Z,13.10
2022-09-18T00:09:03.421Z,13.10
2022-09-18T00:11:37.073Z,13.10
2022-09-18T00:14:06.511Z,13.10
2022-09-18T00:16:34.914Z,13.10
2022-09-18T00:19:02.976Z,13.10
2022-09-18T00:21:31.931Z,13.10
2022-09-18T00:24:02.560Z,13.00
2022-09-18T00:26:30.961Z,13.00
2022-09-18T00:28:59.805Z,13.00
2022-09-18T00:31:30.668Z,13.00
2022-09-18T00:33:59.902Z,13.00
2022-09-18T00:36:29.408Z,13.00
2022-09-18T00:38:59.189Z,13.00
2022-09-18T00:41:30.680Z,12.90
2022-09-18T00:44:31.012Z,13.00
2022-09-18T00:47:05.902Z,13.00
2022-09-18T00:49:34.770Z,13.00
2022-09-18T00:52:03.418Z,13.00
2022-09-18T00:54:35.547Z,12.90
2022-09-18T00:57:08.629Z,13.00
2022-09-18T00:59:38.543Z,12.90
2022-09-18T01:02:07.184Z,12.90
2022-09-18T01:04:35.532Z,12.90
2022-09-18T01:07:10.750Z,12.90
2022-09-18T01:09:48.202Z,13.00
2022-09-18T01:12:28.467Z,12.90
2022-09-18T01:15:05.181Z,12.90
2022-09-18T01:17:40.114Z,12.90
2022-09-18T01:20:33.842Z,12.90
2022-09-18T01:23:32.522Z,13.00
2022-09-18T01:26:10.655Z,12.90
2022-09-18T01:28:45.378Z,12.90
2022-09-18T01:31:20.663Z,12.90
2022-09-18T01:33:53.980Z,12.90
2022-09-18T01:36:24.699Z,12.90
2022-09-18T01:38:58.296Z,12.90
2022-09-18T01:41:28.447Z,12.90
2022-09-18T01:44:04.113Z,12.90
2022-09-18T01:46:32.697Z,12.90
2022-09-18T01:49:06.667Z,12.90
2022-09-18T01:51:44.263Z,13.00
2022-09-18T01:54:16.833Z,13.00
2022-09-18T01:56:49.122Z,12.90
2022-09-18T01:59:23.514Z,12.90
2022-09-18T02:02:05.200Z,12.90
2022-09-18T02:04:38.540Z,12.90
2022-09-18T02:07:16.482Z,12.90
2022-09-18T02:09:44.906Z,13.00
2022-09-18T02:12:18.223Z,12.90
2022-09-18T02:14:49.765Z,12.90
2022-09-18T02:17:52.027Z,12.90
2022-09-18T02:20:24.082Z,12.90
2022-09-18T02:22:57.593Z,12.80
2022-09-18T02:25:32.257Z,12.80
2022-09-18T02:28:01.396Z,12.90
2022-09-18T02:30:31.651Z,12.90
2022-09-18T02:33:00.997Z,12.90
2022-09-18T02:35:37.924Z,12.80
2022-09-18T02:38:18.435Z,12.80
2022-09-18T02:40:57.734Z,12.90
2022-09-18T02:43:41.307Z,12.90
2022-09-18T02:46:20.359Z,12.90
2022-09-18T02:48:59.346Z,12.90
2022-09-18T02:51:34.583Z,12.90
2022-09-18T02:54:07.152Z,12.90
2022-09-18T02:56:41.847Z,12.90
2022-09-18T02:59:13.506Z,13.00
2022-09-18T03:01:46.496Z,13.00
2022-09-18T03:04:22.999Z,13.00
2022-09-18T03:07:08.773Z,12.90
2022-09-18T03:09:42.869Z,12.90
2022-09-18T03:12:11.676Z,12.90
2022-09-18T03:14:42.287Z,12.90
2022-09-18T03:17:12.222Z,12.90
2022-09-18T03:19:40.603Z,12.90
2022-09-18T03:22:09.445Z,12.90
2022-09-18T03:24:38.666Z,12.90
2022-09-18T03:27:07.982Z,12.90
2022-09-18T03:29:36.983Z,12.90
2022-09-18T03:32:05.899Z,12.90
2022-09-18T03:34:43.559Z,12.80
2022-09-18T03:37:11.561Z,12.90
2022-09-18T03:39:39.937Z,12.80
2022-09-18T03:42:12.466Z,12.80
2022-09-18T03:44:40.430Z,12.90
2022-09-18T03:47:18.162Z,12.90
2022-09-18T03:49:49.521Z,12.90
2022-09-18T03:52:18.288Z,12.90
2022-09-18T03:54:57.654Z,12.90
2022-09-18T03:57:44.216Z,12.90
2022-09-18T04:00:31.167Z,12.90
2022-09-18T04:03:06.490Z,12.90
2022-09-18T04:06:02.726Z,12.80
2022-09-18T04:08:49.976Z,12.80
2022-09-18T04:11:26.917Z,12.80
2022-09-18T04:13:55.046Z,12.80
2022-09-18T04:16:23.565Z,12.80
2022-09-18T04:18:53.265Z,12.70
2022-09-18T04:21:24.546Z,12.70
2022-09-18T04:23:53.337Z,12.70
2022-09-18T04:26:21.665Z,12.70
2022-09-18T04:28:55.151Z,12.70
2022-09-18T04:31:23.276Z,12.70
2022-09-18T04:33:51.567Z,12.70
2022-09-18T04:36:24.790Z,12.70
2022-09-18T04:38:53.421Z,12.60
2022-09-18T04:41:21.570Z,12.60
2022-09-18T04:43:49.663Z,12.70
2022-09-18T04:46:19.569Z,12.60
2022-09-18T04:48:49.813Z,12.60
2022-09-18T04:51:21.643Z,12.70
2022-09-18T04:53:52.045Z,12.60
2022-09-18T04:56:20.432Z,12.60
2022-09-18T04:58:51.758Z,12.60
2022-09-18T05:01:20.234Z,12.60
2022-09-18T05:03:48.612Z,12.60
2022-09-18T05:06:25.306Z,12.70
2022-09-18T05:08:55.139Z,12.70
2022-09-18T05:11:25.989Z,12.70
2022-09-18T05:13:56.698Z,12.70
2022-09-18T05:16:27.012Z,12.70
2022-09-18T05:19:14.441Z,12.70
2022-09-18T05:21:42.515Z,12.70
2022-09-18T05:24:14.143Z,12.70
2022-09-18T05:26:43.496Z,12.70
2022-09-18T05:29:12.148Z,12.80
2022-09-18T05:31:42.006Z,12.80
2022-09-18T05:34:10.275Z,12.80
2022-09-18T05:36:38.278Z,12.80
2022-09-18T05:39:07.205Z,12.80
2022-09-18T05:41:37.092Z,12.80
2022-09-18T05:44:06.319Z,12.80
2022-09-18T05:46:34.445Z,12.90
2022-09-18T05:49:06.367Z,12.90
2022-09-18T05:51:34.553Z,12.90
2022-09-18T05:54:03.118Z,12.90
2022-09-18T05:57:01.487Z,12.90
2022-09-18T05:59:32.175Z,12.90
2022-09-18T06:02:01.837Z,13.00
2022-09-18T06:04:52.851Z,13.00
2022-09-18T06:07:20.810Z,12.90
2022-09-18T06:09:49.002Z,13.00
2022-09-18T06:12:18.372Z,13.00
2022-09-18T06:14:46.377Z,13.00
2022-09-18T06:17:15.818Z,13.10
2022-09-18T06:19:43.817Z,13.10
2022-09-18T06:22:11.977Z,13.10
2022-09-18T06:24:40.034Z,13.00
2022-09-18T06:27:10.753Z,13.00
2022-09-18T06:29:41.455Z,13.00
2022-09-18T06:32:12.608Z,13.00
2022-09-18T06:34:41.758Z,13.00
2022-09-18T06:37:13.078Z,13.00
2022-09-18T06:39:41.057Z,13.00
2022-09-18T06:42:10.661Z,13.00
2022-09-18T06:45:03.287Z,13.00
2022-09-18T06:47:31.659Z,13.00
2022-09-18T06:49:59.631Z,13.00
2022-09-18T06:52:28.917Z,13.00
2022-09-18T06:54:59.949Z,13.10
2022-09-18T06:57:34.363Z,13.10
2022-09-18T07:00:05.103Z,13.10
2022-09-18T07:02:38.467Z,13.10
2022-09-18T07:05:26.770Z,13.20
2022-09-18T07:07:54.813Z,13.20
2022-09-18T07:10:24.327Z,13.20
2022-09-18T07:12:57.335Z,13.20
2022-09-18T07:15:27.751Z,13.20
2022-09-18T07:17:57.180Z,13.30
2022-09-18T07:20:26.086Z,13.40
2022-09-18T07:22:55.285Z,13.40
2022-09-18T07:25:31.988Z,13.40
2022-09-18T07:28:04.324Z,13.40
2022-09-18T07:30:35.325Z,13.50
2022-09-18T07:33:04.924Z,13.50
2022-09-18T07:35:35.000Z,13.40
2022-09-18T07:38:07.459Z,13.40
2022-09-18T07:40:50.243Z,13.40
2022-09-18T07:43:32.049Z,13.40
2022-09-18T07:46:03.513Z,13.50
2022-09-18T07:48:34.717Z,13.50
2022-09-18T07:51:11.254Z,13.60
2022-09-18T07:53:41.153Z,13.60
2022-09-18T07:56:10.547Z,13.60
2022-09-18T07:58:39.663Z,13.70
2022-09-18T08:01:38.564Z,13.80
2022-09-18T08:04:07.577Z,13.80
2022-09-18T08:07:14.177Z,13.80
2022-09-18T08:10:17.822Z,13.90
2022-09-18T08:12:55.180Z,14.00
2022-09-18T08:15:34.613Z,14.00
2022-09-18T08:18:13.886Z,14.10
2022-09-18T08:20:57.378Z,14.10
2022-09-18T08:23:45.914Z,14.10
2022-09-18T08:26:20.020Z,14.10
2022-09-18T08:28:51.201Z,14.00
2022-09-18T08:31:19.558Z,14.00
2022-09-18T08:33:49.233Z,14.00
2022-09-18T08:36:17.877Z,14.00
2022-09-18T08:39:00.292Z,14.10
2022-09-18T08:42:11.849Z,14.20
2022-09-18T08:44:48.002Z,14.30
2022-09-18T08:47:22.133Z,14.20
2022-09-18T08:49:57.844Z,14.20
2022-09-18T08:52:29.879Z,14.20
2022-09-18T08:55:13.449Z,14.30
2022-09-18T08:57:56.256Z,14.40
2022-09-18T09:00:42.405Z,14.40
2022-09-18T09:03:28.597Z,14.40
2022-09-18T09:06:01.252Z,14.40
2022-09-18T09:08:52.015Z,14.30
2022-09-18T09:11:32.921Z,14.30
2022-09-18T09:14:18.044Z,14.30
2022-09-18T09:16:51.991Z,14.20
2022-09-18T09:19:35.493Z,14.30
2022-09-18T09:22:13.883Z,14.20
2022-09-18T09:24:54.619Z,14.20
2022-09-18T09:27:31.703Z,14.20
2022-09-18T09:30:03.299Z,14.20
2022-09-18T09:33:06.476Z,14.20
2022-09-18T09:35:50.568Z,14.10
2022-09-18T09:38:38.792Z,14.10
2022-09-18T09:41:16.865Z,14.00
2022-09-18T09:43:53.449Z,14.00
2022-09-18T09:46:36.720Z,14.00
2022-09-18T09:49:11.941Z,13.90
2022-09-18T09:51:47.530Z,13.80
2022-09-18T09:54:17.222Z,13.80
2022-09-18T09:56:52.553Z,13.90
2022-09-18T09:59:28.001Z,14.00
2022-09-18T10:02:35.137Z,14.10
2022-09-18T10:05:13.290Z,14.20
2022-09-18T10:07:47.453Z,14.40
2022-09-18T10:10:28.135Z,14.50
2022-09-18T10:13:00.930Z,14.50
2022-09-18T10:15:36.393Z,14.50
2022-09-18T10:18:16.110Z,14.60
2022-09-18T10:20:47.199Z,14.50
2022-09-18T10:23:28.827Z,14.30
2022-09-18T10:26:03.569Z,14.20
2022-09-18T10:28:33.346Z,14.10
2022-09-18T10:31:06.167Z,14.20
2022-09-18T10:33:40.178Z,14.20
2022-09-18T10:36:35.088Z,14.30
2022-09-18T10:39:18.864Z,14.40
2022-09-18T10:41:50.188Z,14.40
2022-09-18T10:44:25.783Z,14.40
2022-09-18T10:47:05.140Z,14.30
2022-09-18T10:49:37.257Z,14.30
2022-09-18T10:52:32.030Z,14.40
2022-09-18T10:55:17.216Z,14.50
2022-09-18T10:58:07.474Z,14.50
2022-09-18T11:00:48.681Z,14.50
2022-09-18T11:03:32.092Z,14.50
2022-09-18T11:06:03.288Z,14.50
2022-09-18T11:08:35.050Z,14.40
2022-09-18T11:11:06.886Z,14.30
2022-09-18T11:13:44.842Z,14.20
2022-09-18T11:16:24.199Z,14.10
2022-09-18T11:19:07.442Z,14.10
2022-09-18T11:21:45.284Z,14.20
2022-09-18T11:24:24.439Z,14.20
2022-09-18T11:26:58.720Z,14.30
2022-09-18T11:29:32.547Z,14.20
2022-09-18T11:32:06.622Z,14.20
2022-09-18T11:34:39.894Z,14.30
2022-09-18T11:37:15.610Z,14.40
2022-09-18T11:39:51.600Z,14.50
2022-09-18T11:42:21.701Z,14.50
2022-09-18T11:44:53.424Z,14.50
2022-09-18T11:47:32.958Z,14.50
2022-09-18T11:50:13.321Z,14.50
2022-09-18T11:52:44.851Z,14.40
2022-09-18T11:55:26.375Z,14.50
2022-09-18T11:57:58.768Z,14.50
2022-09-18T12:00:32.897Z,14.40
2022-09-18T12:03:12.577Z,14.40
2022-09-18T12:05:52.543Z,14.40
2022-09-18T12:08:31.605Z,14.40
2022-09-18T12:11:14.175Z,14.40
2022-09-18T12:13:50.080Z,14.40
2022-09-18T12:16:26.162Z,14.50
2022-09-18T12:19:03.705Z,14.60
2022-09-18T12:21:41.255Z,14.70
2022-09-18T12:24:14.482Z,14.80
2022-09-18T12:27:04.463Z,14.90
2022-09-18T12:30:05.673Z,14.90
2022-09-18T12:32:53.558Z,15.00
2022-09-18T12:35:28.406Z,15.00
2022-09-18T12:38:07.880Z,15.00
2022-09-18T12:40:52.665Z,15.00
2022-09-18T12:43:42.582Z,15.10
2022-09-18T12:46:23.424Z,15.10
2022-09-18T12:49:04.538Z,15.00
2022-09-18T12:51:41.348Z,15.00
2022-09-18T12:54:24.180Z,15.00
2022-09-18T12:57:07.262Z,14.90
2022-09-18T12:59:56.933Z,14.70
2022-09-18T13:02:41.003Z,14.60
2022-09-18T13:05:16.908Z,14.40
2022-09-18T13:07:51.404Z,14.30
2022-09-18T13:10:23.226Z,13.90
2022-09-18T13:12:59.354Z,13.50
2022-09-18T13:15:30.642Z,13.30
2022-09-18T13:18:09.853Z,13.10
2022-09-18T13:20:42.797Z,12.90
2022-09-18T13:23:17.801Z,12.80
2022-09-18T13:25:47.806Z,12.70
2022-09-18T13:28:18.652Z,12.70
2022-09-18T13:30:47.899Z,12.70
2022-09-18T13:33:24.970Z,12.80
2022-09-18T13:35:57.638Z,12.80
2022-09-18T13:38:27.729Z,12.90
2022-09-18T13:41:02.728Z,13.00
2022-09-18T13:43:40.785Z,13.10
2022-09-18T13:46:11.058Z,13.30
2022-09-18T13:48:46.499Z,13.40
2022-09-18T13:51:24.979Z,13.40
2022-09-18T13:54:16.721Z,13.50
2022-09-18T13:57:24.640Z,13.50
2022-09-18T13:59:55.673Z,13.60
2022-09-18T14:02:46.080Z,13.60
2022-09-18T14:05:30.844Z,13.60
2022-09-18T14:08:35.715Z,13.60
2022-09-18T14:11:16.321Z,13.60
2022-09-18T14:13:55.713Z,13.60
2022-09-18T14:16:35.523Z,13.60
2022-09-18T14:19:07.232Z,13.50
2022-09-18T14:21:40.968Z,13.50
2022-09-18T14:24:38.947Z,13.50
2022-09-18T14:27:32.370Z,13.50
2022-09-18T14:30:03.746Z,13.50
2022-09-18T14:32:32.994Z,13.60
2022-09-18T14:35:27.414Z,13.50
2022-09-18T14:37:55.466Z,13.50
2022-09-18T14:40:27.369Z,13.50
2022-09-18T14:42:55.835Z,13.50
2022-09-18T14:45:29.885Z,13.60
2022-09-18T14:47:59.459Z,13.60
2022-09-18T14:50:35.060Z,13.50
2022-09-18T14:53:19.583Z,13.50
2022-09-18T14:55:54.001Z,13.50
2022-09-18T14:58:24.041Z,13.60
2022-09-18T15:00:55.314Z,13.60
2022-09-18T15:03:27.162Z,13.60
2022-09-18T15:05:58.547Z,13.60
2022-09-18T15:08:27.411Z,13.70
2022-09-18T15:10:59.071Z,13.70
2022-09-18T15:13:35.526Z,13.60
2022-09-18T15:16:05.183Z,13.60
2022-09-18T15:18:42.219Z,13.60
2022-09-18T15:21:23.615Z,13.60
2022-09-18T15:23:52.058Z,13.50
2022-09-18T15:26:24.101Z,13.40
2022-09-18T15:28:54.704Z,13.40
2022-09-18T15:31:23.918Z,13.40
2022-09-18T15:33:57.359Z,13.40
2022-09-18T15:36:28.507Z,13.40
2022-09-18T15:38:57.968Z,13.40
2022-09-18T15:41:41.330Z,13.40
2022-09-18T15:44:53.612Z,13.40
2022-09-18T15:47:37.194Z,13.40
2022-09-18T15:50:33.990Z,13.40
2022-09-18T15:53:15.747Z,13.30
2022-09-18T15:55:56.685Z,13.30
2022-09-18T15:58:51.336Z,13.20
2022-09-18T16:01:22.866Z,13.30
2022-09-18T16:04:04.465Z,13.20
2022-09-18T16:06:43.142Z,13.20
2022-09-18T16:09:42.703Z,13.10
2022-09-18T16:12:34.673Z,13.10
2022-09-18T16:15:16.860Z,13.10
2022-09-18T16:18:24.623Z,13.10
2022-09-18T16:21:04.381Z,13.10
2022-09-18T16:23:34.384Z,13.10
2022-09-18T16:26:11.525Z,13.10
2022-09-18T16:28:43.806Z,13.00
2022-09-18T16:31:15.031Z,13.00
2022-09-18T16:33:55.374Z,13.00
2022-09-18T16:36:30.384Z,12.90
2022-09-18T16:39:01.443Z,12.90
2022-09-18T16:41:31.026Z,12.80
2022-09-18T16:44:00.036Z,12.80
2022-09-18T16:46:35.638Z,12.70
2022-09-18T16:49:04.142Z,12.70
2022-09-18T16:51:33.249Z,12.70
2022-09-18T16:54:01.290Z,12.70
2022-09-18T16:56:32.867Z,12.60
2022-09-18T16:59:03.191Z,12.60
2022-09-18T17:01:48.547Z,12.50
2022-09-18T17:04:24.081Z,12.50
2022-09-18T17:06:52.203Z,12.50
2022-09-18T17:09:21.319Z,12.50
2022-09-18T17:11:49.295Z,12.40
2022-09-18T17:14:17.327Z,12.50
2022-09-18T17:16:46.957Z,12.40
2022-09-18T17:19:15.229Z,12.40
2022-09-18T17:21:43.647Z,12.40
2022-09-18T17:24:12.216Z,12.40
2022-09-18T17:26:42.122Z,12.40
2022-09-18T17:29:11.381Z,12.40
2022-09-18T17:31:39.648Z,12.50
2022-09-18T17:34:09.209Z,12.40
2022-09-18T17:36:40.151Z,12.40
2022-09-18T17:39:08.458Z,12.30
2022-09-18T17:41:36.530Z,12.10
2022-09-18T17:44:04.994Z,12.10
2022-09-18T17:46:33.021Z,12.10
2022-09-18T17:49:01.709Z,12.20
2022-09-18T17:51:31.187Z,12.20
2022-09-18T17:54:02.688Z,12.10
2022-09-18T17:56:31.638Z,12.00
2022-09-18T17:59:02.062Z,11.90
2022-09-18T18:01:30.974Z,11.90
2022-09-18T18:04:00.493Z,11.80
2022-09-18T18:06:28.656Z,11.80
2022-09-18T18:08:57.963Z,11.80
2022-09-18T18:11:26.631Z,11.80
2022-09-18T18:13:56.198Z,11.80
2022-09-18T18:16:27.342Z,11.80
2022-09-18T18:18:58.778Z,11.70
2022-09-18T18:21:27.942Z,11.70
2022-09-18T18:23:58.049Z,11.80
2022-09-18T18:26:27.847Z,11.80
2022-09-18T18:28:56.465Z,11.80
2022-09-18T18:31:26.000Z,11.80
2022-09-18T18:33:55.463Z,11.80
2022-09-18T18:36:25.929Z,11.80
2022-09-18T18:38:55.499Z,11.80
2022-09-18T18:41:26.708Z,11.80
2022-09-18T18:43:56.722Z,11.80
2022-09-18T18:46:26.209Z,11.80
2022-09-18T18:48:59.939Z,11.80
2022-09-18T18:51:28.970Z,11.90
2022-09-18T18:53:57.557Z,12.10
2022-09-18T18:56:26.972Z,12.20
2022-09-18T18:58:57.554Z,12.20
2022-09-18T19:01:25.983Z,12.20
2022-09-18T19:03:55.913Z,12.20
2022-09-18T19:06:24.865Z,12.20
2022-09-18T19:08:56.802Z,12.20
2022-09-18T19:11:27.006Z,12.10
2022-09-18T19:13:57.207Z,12.00
2022-09-18T19:16:26.988Z,12.00
2022-09-18T19:18:58.505Z,12.00
2022-09-18T19:21:27.157Z,11.90
2022-09-18T19:23:58.779Z,11.90
2022-09-18T19:26:29.619Z,12.00
2022-09-18T19:28:59.871Z,12.00
2022-09-18T19:31:29.686Z,11.90
2022-09-18T19:33:58.264Z,11.90
2022-09-18T19:36:41.599Z,11.90
2022-09-18T19:39:12.373Z,11.90
2022-09-18T19:41:46.561Z,11.90
2022-09-18T19:44:26.286Z,11.90
2022-09-18T19:46:56.781Z,11.90
2022-09-18T19:49:31.543Z,11.90
2022-09-18T19:51:59.788Z,11.80
2022-09-18T19:54:27.860Z,11.80
2022-09-18T19:56:58.990Z,11.80
2022-09-18T19:59:27.173Z,11.70
2022-09-18T20:01:55.518Z,11.60
2022-09-18T20:04:23.666Z,11.60
2022-09-18T20:06:51.723Z,11.60
2022-09-18T20:09:20.002Z,11.50
2022-09-18T20:11:48.524Z,11.50
2022-09-18T20:14:18.348Z,11.50
2022-09-18T20:16:46.493Z,11.40
2022-09-18T20:19:14.588Z,11.40
2022-09-18T20:21:43.332Z,11.40
2022-09-18T20:24:11.420Z,11.40
2022-09-18T20:26:39.615Z,11.30
2022-09-18T20:29:07.650Z,11.30
2022-09-18T20:31:37.087Z,11.30
2022-09-18T20:34:05.826Z,11.30
2022-09-18T20:36:34.041Z,11.30
2022-09-18T20:39:03.259Z,11.30
2022-09-18T20:41:31.797Z,11.30
2022-09-18T20:44:04.797Z,11.30
2022-09-18T20:46:37.239Z,11.30
2022-09-18T20:49:07.807Z,11.30
2022-09-18T20:51:36.165Z,11.30
2022-09-18T20:54:06.935Z,11.30
2022-09-18T20:56:38.046Z,11.30
2022-09-18T20:59:06.551Z,11.30
2022-09-18T21:01:37.852Z,11.30
2022-09-18T21:04:09.133Z,11.30
2022-09-18T21:06:37.506Z,11.30
2022-09-18T21:09:08.641Z,11.30
2022-09-18T21:11:38.813Z,11.30
2022-09-18T21:14:09.011Z,11.30
2022-09-18T21:16:40.438Z,11.20
2022-09-18T21:19:11.994Z,11.20
2022-09-18T21:21:40.301Z,11.20
2022-09-18T21:24:09.291Z,11.20
2022-09-18T21:26:39.140Z,11.10
2022-09-18T21:29:11.237Z,11.10
2022-09-18T21:31:42.448Z,11.10
2022-09-18T21:34:13.808Z,11.20
2022-09-18T21:36:44.124Z,11.10
2022-09-18T21:39:13.253Z,11.10
2022-09-18T21:41:45.933Z,11.10
2022-09-18T21:44:16.203Z,11.10
2022-09-18T21:46:45.926Z,11.10
2022-09-18T21:49:16.283Z,11.10
2022-09-18T21:51:44.880Z,11.10
2022-09-18T21:54:15.845Z,11.10
2022-09-18T21:56:45.519Z,11.10
2022-09-18T21:59:13.849Z,11.00
2022-09-18T22:01:43.054Z,11.00
2022-09-18T22:04:12.075Z,11.00
2022-09-18T22:06:44.225Z,11.00
2022-09-18T22:09:14.150Z,11.00
2022-09-18T22:11:43.441Z,11.00
2022-09-18T22:14:13.437Z,11.10
2022-09-18T22:16:43.013Z,11.10
2022-09-18T22:19:11.642Z,11.10
2022-09-18T22:21:44.193Z,11.00
2022-09-18T22:24:15.145Z,11.00
2022-09-18T22:26:45.583Z,11.00
2022-09-18T22:29:17.561Z,11.10
2022-09-18T22:31:47.042Z,11.00
2022-09-18T22:34:17.253Z,11.10
2022-09-18T22:36:47.870Z,11.10
2022-09-18T22:39:17.842Z,11.10
2022-09-18T22:41:46.323Z,11.10
2022-09-18T22:44:15.734Z,11.10
2022-09-18T22:46:45.520Z,11.10
2022-09-18T22:49:15.116Z,11.00
2022-09-18T22:51:43.277Z,11.00
2022-09-18T22:54:14.095Z,11.00
2022-09-18T22:56:44.489Z,11.00
2022-09-18T22:59:13.294Z,10.90
2022-09-18T23:01:47.697Z,10.90
2022-09-18T23:04:17.999Z,10.90
2022-09-18T23:06:46.671Z,10.90
2022-09-18T23:09:17.190Z,10.90
2022-09-18T23:11:46.552Z,10.90
2022-09-18T23:14:18.297Z,10.90
2022-09-18T23:16:46.368Z,10.90
2022-09-18T23:19:16.791Z,10.90
2022-09-18T23:21:44.767Z,11.00
2022-09-18T23:24:14.479Z,11.00
2022-09-18T23:26:45.933Z,11.00
2022-09-18T23:29:16.035Z,10.90
2022-09-18T23:31:47.067Z,10.90
2022-09-18T23:34:18.998Z,10.90
2022-09-18T23:36:48.842Z,11.00
2022-09-18T23:39:19.303Z,11.00
2022-09-18T23:41:49.007Z,11.00
2022-09-18T23:44:19.292Z,11.00
2022-09-18T23:46:47.871Z,11.00
2022-09-18T23:49:17.052Z,11.00
2022-09-18T23:51:46.645Z,11.00
2022-09-18T23:54:17.697Z,11.00
2022-09-18T23:56:46.552Z,11.00
2022-09-18T23:59:21.949Z,11.00
